createdAt,value
2019-05-25T00:00:52.807Z,0.50
2019-05-25T00:01:52.815Z,0.60
2019-05-25T00:02:52.801Z,0.70
2019-05-25T00:03:52.775Z,0.60
2019-05-25T00:04:52.764Z,0.70
2019-05-25T00:05:52.756Z,0.60
2019-05-25T00:06:52.780Z,0.50
2019-05-25T00:07:52.726Z,0.70
2019-05-25T00:08:52.717Z,0.60
2019-05-25T00:09:52.704Z,0.60
2019-05-25T00:10:52.695Z,0.70
2019-05-25T00:11:52.684Z,0.60
2019-05-25T00:12:52.705Z,0.60
2019-05-25T00:14:02.832Z,0.60
2019-05-25T00:14:52.654Z,0.60
2019-05-25T00:15:52.637Z,0.60
2019-05-25T00:16:52.633Z,0.50
2019-05-25T00:17:52.621Z,0.60
2019-05-25T00:18:52.643Z,0.60
2019-05-25T00:19:52.597Z,0.60
2019-05-25T00:20:52.620Z,0.60
2019-05-25T00:21:52.575Z,0.70
2019-05-25T00:22:52.559Z,0.70
2019-05-25T00:23:52.547Z,0.50
2019-05-25T00:24:52.581Z,0.40
2019-05-25T00:25:52.524Z,0.60
2019-05-25T00:26:52.525Z,0.50
2019-05-25T00:27:52.511Z,0.40
2019-05-25T00:28:52.491Z,0.60
2019-05-25T00:29:52.481Z,0.50
2019-05-25T00:30:52.480Z,0.60
2019-05-25T00:31:52.468Z,0.60
2019-05-25T00:32:52.455Z,0.50
2019-05-25T00:33:52.438Z,0.70
2019-05-25T00:34:52.441Z,0.60
2019-05-25T00:35:52.420Z,0.50
2019-05-25T00:36:52.412Z,0.60
2019-05-25T00:37:52.399Z,0.60
2019-05-25T00:38:52.388Z,0.50
2019-05-25T00:39:52.428Z,0.60
2019-05-25T00:40:52.368Z,0.50
2019-05-25T00:41:52.353Z,0.50
2019-05-25T00:42:52.345Z,0.50
2019-05-25T00:43:52.327Z,0.70
2019-05-25T00:45:02.451Z,0.50
2019-05-25T00:45:52.305Z,0.60
2019-05-25T00:46:52.309Z,0.60
2019-05-25T00:47:52.280Z,0.50
2019-05-25T00:48:52.277Z,0.60
2019-05-25T00:49:52.302Z,0.50
2019-05-25T00:50:52.254Z,0.50
2019-05-25T00:51:52.237Z,0.50
2019-05-25T00:52:52.225Z,0.60
2019-05-25T00:53:52.221Z,0.50
2019-05-25T00:54:52.201Z,0.60
2019-05-25T00:55:52.213Z,0.50
2019-05-25T00:56:52.185Z,0.60
2019-05-25T00:57:52.174Z,0.60
2019-05-25T00:58:52.160Z,0.70
2019-05-25T00:59:52.152Z,0.60
2019-05-25T01:00:52.139Z,0.60
2019-05-25T01:01:52.139Z,0.60
2019-05-25T01:02:52.163Z,0.50
2019-05-25T01:03:52.108Z,0.60
2019-05-25T01:04:52.096Z,0.60
2019-05-25T01:05:52.088Z,0.40
2019-05-25T01:06:52.109Z,0.60
2019-05-25T01:07:52.070Z,0.60
2019-05-25T01:08:52.049Z,0.50
2019-05-25T01:09:52.034Z,0.60
2019-05-25T01:10:52.029Z,0.50
2019-05-25T01:11:52.014Z,0.70
2019-05-25T01:12:52.071Z,0.60
2019-05-25T01:13:51.997Z,0.50
2019-05-25T01:14:51.980Z,0.60
2019-05-25T01:16:02.132Z,0.50
2019-05-25T01:16:51.976Z,0.70
2019-05-25T01:17:51.954Z,0.60
2019-05-25T01:18:52.016Z,0.60
2019-05-25T01:19:51.928Z,0.50
2019-05-25T01:20:51.916Z,0.60
2019-05-25T01:21:51.906Z,0.50
2019-05-25T01:22:51.895Z,0.60
2019-05-25T01:23:51.878Z,0.70
2019-05-25T01:24:51.887Z,0.60
2019-05-25T01:25:51.856Z,0.60
2019-05-25T01:26:51.845Z,0.60
2019-05-25T01:27:51.850Z,0.60
2019-05-25T01:28:51.831Z,0.60
2019-05-25T01:29:51.821Z,0.70
2019-05-25T01:30:51.802Z,0.60
2019-05-25T01:31:51.794Z,0.60
2019-05-25T01:32:51.779Z,0.50
2019-05-25T01:33:51.770Z,0.60
2019-05-25T01:34:51.764Z,0.60
2019-05-25T01:35:51.744Z,0.60
2019-05-25T01:36:51.738Z,0.60
2019-05-25T01:37:51.728Z,0.60
2019-05-25T01:38:51.725Z,0.60
2019-05-25T01:39:51.701Z,0.60
2019-05-25T01:40:51.698Z,0.50
2019-05-25T01:41:51.680Z,0.50
2019-05-25T01:42:51.671Z,0.60
2019-05-25T01:43:51.671Z,0.70
2019-05-25T01:44:51.644Z,0.60
2019-05-25T01:45:51.634Z,0.40
2019-05-25T01:47:04.103Z,0.70
2019-05-25T01:47:51.618Z,0.60
2019-05-25T01:48:51.699Z,0.70
2019-05-25T01:49:51.593Z,0.50
2019-05-25T01:50:51.577Z,0.60
2019-05-25T01:51:51.573Z,0.60
2019-05-25T01:52:51.560Z,0.60
2019-05-25T01:53:51.553Z,0.50
2019-05-25T01:55:00.076Z,0.60
2019-05-25T01:55:52.528Z,0.60
2019-05-25T01:56:51.510Z,0.70
2019-05-25T01:57:51.510Z,0.70
2019-05-25T01:58:51.490Z,0.60
2019-05-25T01:59:51.515Z,0.40
2019-05-25T02:00:51.475Z,0.60
2019-05-25T02:01:51.458Z,0.60
2019-05-25T02:02:51.451Z,0.70
2019-05-25T02:03:51.434Z,0.50
2019-05-25T02:04:51.421Z,0.60
2019-05-25T02:05:51.423Z,0.60
2019-05-25T02:06:51.401Z,0.60
2019-05-25T02:07:51.391Z,0.60
2019-05-25T02:08:51.381Z,0.60
2019-05-25T02:09:51.365Z,0.60
2019-05-25T02:10:51.394Z,0.40
2019-05-25T02:11:51.346Z,0.60
2019-05-25T02:12:51.339Z,0.50
2019-05-25T02:13:51.330Z,0.60
2019-05-25T02:14:51.312Z,0.50
2019-05-25T02:15:51.304Z,0.50
2019-05-25T02:16:51.303Z,0.50
2019-05-25T02:18:03.007Z,0.60
2019-05-25T02:18:51.276Z,0.60
2019-05-25T02:19:51.460Z,0.60
2019-05-25T02:20:51.253Z,0.70
2019-05-25T02:21:51.343Z,0.60
2019-05-25T02:22:51.222Z,0.60
2019-05-25T02:23:51.215Z,0.60
2019-05-25T02:24:51.231Z,0.60
2019-05-25T02:25:51.193Z,0.60
2019-05-25T02:26:51.194Z,0.70
2019-05-25T02:27:51.182Z,0.50
2019-05-25T02:28:51.186Z,0.70
2019-05-25T02:29:51.155Z,0.60
2019-05-25T02:30:51.138Z,0.70
2019-05-25T02:31:51.132Z,0.60
2019-05-25T02:32:51.154Z,0.70
2019-05-25T02:33:51.111Z,0.60
2019-05-25T02:34:51.095Z,0.60
2019-05-25T02:35:51.085Z,0.60
2019-05-25T02:36:51.072Z,0.60
2019-05-25T02:37:51.066Z,0.60
2019-05-25T02:38:51.057Z,0.60
2019-05-25T02:39:51.042Z,0.60
2019-05-25T02:40:51.024Z,0.70
2019-05-25T02:41:51.015Z,0.50
2019-05-25T02:42:51.008Z,0.60
2019-05-25T02:43:51.002Z,0.50
2019-05-25T02:44:50.993Z,0.50
2019-05-25T02:45:50.974Z,0.60
2019-05-25T02:46:50.965Z,0.70
2019-05-25T02:47:50.968Z,0.60
2019-05-25T02:49:02.149Z,0.50
2019-05-25T02:49:50.974Z,0.50
2019-05-25T02:50:53.052Z,0.60
2019-05-25T02:51:50.905Z,0.60
2019-05-25T02:52:50.899Z,0.50
2019-05-25T02:53:50.879Z,0.60
2019-05-25T02:54:50.883Z,0.70
2019-05-25T02:55:50.856Z,0.60
2019-05-25T02:56:50.849Z,0.80
2019-05-25T02:57:50.833Z,0.70
2019-05-25T02:58:50.823Z,0.60
2019-05-25T02:59:50.854Z,0.60
2019-05-25T03:00:50.803Z,0.80
2019-05-25T03:01:50.788Z,0.50
2019-05-25T03:02:50.781Z,0.70
2019-05-25T03:03:50.773Z,0.60
2019-05-25T03:04:50.756Z,0.60
2019-05-25T03:05:50.755Z,0.50
2019-05-25T03:06:50.732Z,0.60
2019-05-25T03:07:50.725Z,0.60
2019-05-25T03:08:50.718Z,0.50
2019-05-25T03:09:50.699Z,0.60
2019-05-25T03:10:50.819Z,0.70
2019-05-25T03:11:50.678Z,0.60
2019-05-25T03:12:50.671Z,0.50
2019-05-25T03:13:50.660Z,0.70
2019-05-25T03:14:50.653Z,0.70
2019-05-25T03:15:50.638Z,0.70
2019-05-25T03:16:50.663Z,0.70
2019-05-25T03:17:50.612Z,0.60
2019-05-25T03:18:50.600Z,0.60
2019-05-25T03:20:01.310Z,0.70
2019-05-25T03:20:50.579Z,0.70
2019-05-25T03:21:50.574Z,0.60
2019-05-25T03:22:50.601Z,0.70
2019-05-25T03:23:50.543Z,0.70
2019-05-25T03:24:50.533Z,0.60
2019-05-25T03:25:50.524Z,0.70
2019-05-25T03:26:50.511Z,0.70
2019-05-25T03:27:50.505Z,0.80
2019-05-25T03:28:50.496Z,0.70
2019-05-25T03:29:50.480Z,0.70
2019-05-25T03:30:50.470Z,0.70
2019-05-25T03:31:50.463Z,0.80
2019-05-25T03:32:50.449Z,0.60
2019-05-25T03:33:50.441Z,0.80
2019-05-25T03:34:50.428Z,0.70
2019-05-25T03:35:50.417Z,0.70
2019-05-25T03:36:50.401Z,0.70
2019-05-25T03:37:50.427Z,0.70
2019-05-25T03:38:50.377Z,0.60
2019-05-25T03:39:50.368Z,0.60
2019-05-25T03:40:50.360Z,0.70
2019-05-25T03:41:50.343Z,0.80
2019-05-25T03:42:50.337Z,0.70
2019-05-25T03:43:50.339Z,0.70
2019-05-25T03:44:50.309Z,0.80
2019-05-25T03:45:50.304Z,0.70
2019-05-25T03:46:50.289Z,0.80
2019-05-25T03:47:50.281Z,0.70
2019-05-25T03:48:50.270Z,0.80
2019-05-25T03:49:50.294Z,0.60
2019-05-25T03:51:00.106Z,0.80
2019-05-25T03:51:50.235Z,0.70
2019-05-25T03:52:50.227Z,1.00
2019-05-25T03:53:50.208Z,0.70
2019-05-25T03:54:50.205Z,0.70
2019-05-25T03:56:04.690Z,0.70
2019-05-25T03:56:51.173Z,0.70
2019-05-25T03:57:50.163Z,0.80
2019-05-25T03:58:50.157Z,0.80
2019-05-25T03:59:50.148Z,0.80
2019-05-25T04:00:50.141Z,0.70
2019-05-25T04:01:50.122Z,0.80
2019-05-25T04:02:50.197Z,0.80
2019-05-25T04:03:50.101Z,0.70
2019-05-25T04:04:50.092Z,0.70
2019-05-25T04:05:50.082Z,0.70
2019-05-25T04:06:50.064Z,0.90
2019-05-25T04:07:50.054Z,0.80
2019-05-25T04:08:50.048Z,0.80
2019-05-25T04:09:50.031Z,0.60
2019-05-25T04:10:50.034Z,0.80
2019-05-25T04:11:50.021Z,0.80
2019-05-25T04:12:49.999Z,0.90
2019-05-25T04:13:49.988Z,0.80
2019-05-25T04:14:49.974Z,1.00
2019-05-25T04:15:50.007Z,0.80
2019-05-25T04:16:49.972Z,0.80
2019-05-25T04:17:49.941Z,0.60
2019-05-25T04:18:49.934Z,0.70
2019-05-25T04:19:49.921Z,0.80
2019-05-25T04:20:49.908Z,0.80
2019-05-25T04:22:00.290Z,0.90
2019-05-25T04:22:49.889Z,0.70
2019-05-25T04:23:49.884Z,0.90
2019-05-25T04:24:49.867Z,0.80
2019-05-25T04:25:49.859Z,0.90
2019-05-25T04:26:49.844Z,0.90
2019-05-25T04:27:49.868Z,0.70
2019-05-25T04:28:49.826Z,1.10
2019-05-25T04:29:49.815Z,0.90
2019-05-25T04:30:49.814Z,0.70
2019-05-25T04:31:49.787Z,0.80
2019-05-25T04:32:49.792Z,0.90
2019-05-25T04:33:49.780Z,0.90
2019-05-25T04:34:49.755Z,0.80
2019-05-25T04:35:49.746Z,0.90
2019-05-25T04:36:49.734Z,0.90
2019-05-25T04:37:49.724Z,1.10
2019-05-25T04:38:49.743Z,0.90
2019-05-25T04:39:49.700Z,1.00
2019-05-25T04:40:49.691Z,0.80
2019-05-25T04:41:49.684Z,1.00
2019-05-25T04:42:49.668Z,1.10
2019-05-25T04:43:49.663Z,1.00
2019-05-25T04:44:49.646Z,1.00
2019-05-25T04:45:49.641Z,1.00
2019-05-25T04:46:49.622Z,0.90
2019-05-25T04:47:49.615Z,1.00
2019-05-25T04:48:49.608Z,1.00
2019-05-25T04:49:49.596Z,0.90
2019-05-25T04:50:49.578Z,1.00
2019-05-25T04:51:49.569Z,1.00
2019-05-25T04:53:00.109Z,1.00
2019-05-25T04:53:49.548Z,1.00
2019-05-25T04:54:49.575Z,1.00
2019-05-25T04:55:49.531Z,1.00
2019-05-25T04:56:49.519Z,0.90
2019-05-25T04:57:49.504Z,0.90
2019-05-25T04:58:49.496Z,1.00
2019-05-25T04:59:49.489Z,0.90
2019-05-25T05:00:49.479Z,1.00
2019-05-25T05:01:49.467Z,0.90
2019-05-25T05:02:49.460Z,1.00
2019-05-25T05:03:49.437Z,0.90
2019-05-25T05:04:49.429Z,1.00
2019-05-25T05:05:49.423Z,0.90
2019-05-25T05:06:49.673Z,1.00
2019-05-25T05:07:49.393Z,0.90
2019-05-25T05:08:49.385Z,1.20
2019-05-25T05:10:01.570Z,0.90
2019-05-25T05:10:50.370Z,1.00
2019-05-25T05:11:49.350Z,1.10
2019-05-25T05:12:49.338Z,1.00
2019-05-25T05:13:49.327Z,0.80
2019-05-25T05:14:49.315Z,1.00
2019-05-25T05:15:49.320Z,0.90
2019-05-25T05:16:49.296Z,0.90
2019-05-25T05:17:49.280Z,1.00
2019-05-25T05:18:49.268Z,0.90
2019-05-25T05:19:49.260Z,1.10
2019-05-25T05:20:49.246Z,0.90
2019-05-25T05:21:49.250Z,1.00
2019-05-25T05:22:49.229Z,1.00
2019-05-25T05:24:00.468Z,0.90
2019-05-25T05:24:49.204Z,0.90
2019-05-25T05:25:49.204Z,0.90
2019-05-25T05:26:55.941Z,1.00
2019-05-25T05:27:50.169Z,1.00
2019-05-25T05:28:49.351Z,0.90
2019-05-25T05:29:49.151Z,0.90
2019-05-25T05:30:49.143Z,1.00
2019-05-25T05:31:49.124Z,0.90
2019-05-25T05:32:49.126Z,1.00
2019-05-25T05:33:49.107Z,1.20
2019-05-25T05:34:49.093Z,1.10
2019-05-25T05:35:49.082Z,1.00
2019-05-25T05:36:49.111Z,1.00
2019-05-25T05:37:49.056Z,1.10
2019-05-25T05:38:49.052Z,1.00
2019-05-25T05:39:49.037Z,0.90
2019-05-25T05:40:49.030Z,0.90
2019-05-25T05:41:49.021Z,1.00
2019-05-25T05:42:49.013Z,1.10
2019-05-25T05:43:48.993Z,1.10
2019-05-25T05:44:48.979Z,1.20
2019-05-25T05:45:48.970Z,1.00
2019-05-25T05:46:48.956Z,1.00
2019-05-25T05:47:48.956Z,1.10
2019-05-25T05:49:48.926Z,1.10
2019-05-25T05:50:48.916Z,1.10
2019-05-25T05:51:48.903Z,1.10
2019-05-25T05:52:48.933Z,0.90
2019-05-25T05:54:59.945Z,1.00
2019-05-25T05:55:48.928Z,1.20
2019-05-25T05:56:48.850Z,1.00
2019-05-25T05:57:48.835Z,1.10
2019-05-25T05:59:48.818Z,1.10
2019-05-25T06:00:48.802Z,1.00
2019-05-25T06:01:48.792Z,0.90
2019-05-25T06:02:48.782Z,1.00
2019-05-25T06:03:48.774Z,1.30
2019-05-25T06:04:48.756Z,1.10
2019-05-25T06:05:48.749Z,1.20
2019-05-25T06:06:48.741Z,1.10
2019-05-25T06:07:48.721Z,1.10
2019-05-25T06:08:48.722Z,1.20
2019-05-25T06:09:48.705Z,1.10
2019-05-25T06:10:48.704Z,0.90
2019-05-25T06:11:48.676Z,0.90
2019-05-25T06:12:48.670Z,1.20
2019-05-25T06:13:48.659Z,1.30
2019-05-25T06:14:48.706Z,1.10
2019-05-25T06:15:48.640Z,1.00
2019-05-25T06:16:48.620Z,1.10
2019-05-25T06:17:48.612Z,1.00
2019-05-25T06:18:48.606Z,1.20
2019-05-25T06:19:48.591Z,1.10
2019-05-25T06:21:48.564Z,1.00
2019-05-25T06:22:48.559Z,1.10
2019-05-25T06:23:48.545Z,1.00
2019-05-25T06:26:00.441Z,1.10
2019-05-25T06:26:48.509Z,1.10
2019-05-25T06:27:48.513Z,1.10
2019-05-25T06:28:48.516Z,1.20
2019-05-25T06:30:48.594Z,1.00
2019-05-25T06:31:48.469Z,1.10
2019-05-25T06:32:48.459Z,1.10
2019-05-25T06:33:48.436Z,1.00
2019-05-25T06:34:48.427Z,1.00
2019-05-25T06:35:48.416Z,1.00
2019-05-25T06:36:48.434Z,0.80
2019-05-25T06:37:48.395Z,1.20
2019-05-25T06:38:48.384Z,1.10
2019-05-25T06:39:48.376Z,1.20
2019-05-25T06:40:48.355Z,1.10
2019-05-25T06:41:48.345Z,1.20
2019-05-25T06:42:48.342Z,1.10
2019-05-25T06:43:48.320Z,1.10
2019-05-25T06:44:48.326Z,1.10
2019-05-25T06:45:48.302Z,1.10
2019-05-25T06:46:48.292Z,1.00
2019-05-25T06:47:48.283Z,1.10
2019-05-25T06:48:48.271Z,1.10
2019-05-25T06:49:48.258Z,1.10
2019-05-25T06:50:48.242Z,1.20
2019-05-25T06:51:48.313Z,1.00
2019-05-25T06:53:48.213Z,1.10
2019-05-25T06:54:48.203Z,1.00
2019-05-25T06:56:59.654Z,1.00
2019-05-25T06:57:48.267Z,0.90
2019-05-25T06:58:48.161Z,1.00
2019-05-25T06:59:48.157Z,1.20
2019-05-25T07:00:48.132Z,1.10
2019-05-25T07:01:48.120Z,0.90
2019-05-25T07:02:48.106Z,1.10
2019-05-25T07:03:48.098Z,1.00
2019-05-25T07:04:48.101Z,1.00
2019-05-25T07:05:48.080Z,1.00
2019-05-25T07:06:48.062Z,1.00
2019-05-25T07:07:48.057Z,1.00
2019-05-25T07:08:48.040Z,1.00
2019-05-25T07:09:48.035Z,1.10
2019-05-25T07:10:48.022Z,1.10
2019-05-25T07:11:48.009Z,1.10
2019-05-25T07:12:48.003Z,1.00
2019-05-25T07:13:47.984Z,1.00
2019-05-25T07:14:47.988Z,1.00
2019-05-25T07:15:47.989Z,1.10
2019-05-25T07:16:47.950Z,1.00
2019-05-25T07:17:47.944Z,0.90
2019-05-25T07:18:47.930Z,1.00
2019-05-25T07:19:47.921Z,0.90
2019-05-25T07:20:47.923Z,1.10
2019-05-25T07:21:47.892Z,1.20
2019-05-25T07:22:47.887Z,1.00
2019-05-25T07:23:47.873Z,1.00
2019-05-25T07:25:47.847Z,1.10
2019-05-25T07:28:00.460Z,1.00
2019-05-25T07:28:47.822Z,1.10
2019-05-25T07:29:47.808Z,0.90
2019-05-25T07:30:47.792Z,0.90
2019-05-25T07:31:47.791Z,1.00
2019-05-25T07:32:47.776Z,1.00
2019-05-25T07:33:47.764Z,1.00
2019-05-25T07:34:47.747Z,0.90
2019-05-25T07:35:47.736Z,0.80
2019-05-25T07:36:47.734Z,1.10
2019-05-25T07:37:47.722Z,1.00
2019-05-25T07:38:47.709Z,0.90
2019-05-25T07:39:47.695Z,1.10
2019-05-25T07:40:47.680Z,1.10
2019-05-25T07:41:47.679Z,0.90
2019-05-25T07:42:47.666Z,0.90
2019-05-25T07:43:47.650Z,1.00
2019-05-25T07:44:47.644Z,0.90
2019-05-25T07:45:47.629Z,0.80
2019-05-25T07:46:47.621Z,0.90
2019-05-25T07:47:47.641Z,0.90
2019-05-25T07:48:50.342Z,1.00
2019-05-25T07:49:47.587Z,1.20
2019-05-25T07:50:47.576Z,1.10
2019-05-25T07:51:47.566Z,0.90
2019-05-25T07:52:47.554Z,0.90
2019-05-25T07:53:47.547Z,1.00
2019-05-25T07:54:47.533Z,1.00
2019-05-25T07:55:47.516Z,1.30
2019-05-25T07:58:59.888Z,1.00
2019-05-25T07:59:47.471Z,1.00
2019-05-25T08:00:47.473Z,1.00
2019-05-25T08:01:47.447Z,1.10
2019-05-25T08:02:47.439Z,1.00
2019-05-25T08:03:47.440Z,1.10
2019-05-25T08:04:47.459Z,1.00
2019-05-25T08:05:47.408Z,1.20
2019-05-25T08:06:47.398Z,0.90
2019-05-25T08:07:47.390Z,1.20
2019-05-25T08:08:47.382Z,1.10
2019-05-25T08:09:47.364Z,1.00
2019-05-25T08:10:47.359Z,1.10
2019-05-25T08:11:47.340Z,1.00
2019-05-25T08:12:47.332Z,1.10
2019-05-25T08:13:47.321Z,1.10
2019-05-25T08:14:47.308Z,1.10
2019-05-25T08:15:47.311Z,1.20
2019-05-25T08:16:47.290Z,1.10
2019-05-25T08:17:47.274Z,1.10
2019-05-25T08:18:47.264Z,1.00
2019-05-25T08:19:47.256Z,1.10
2019-05-25T08:20:47.613Z,1.10
2019-05-25T08:21:47.274Z,1.10
2019-05-25T08:22:47.219Z,1.10
2019-05-25T08:23:47.211Z,0.90
2019-05-25T08:24:47.197Z,1.10
2019-05-25T08:25:47.195Z,1.10
2019-05-25T08:26:47.178Z,0.90
2019-05-25T08:27:47.173Z,1.10
2019-05-25T08:29:57.605Z,1.10
2019-05-25T08:30:47.159Z,0.90
2019-05-25T08:31:47.142Z,1.00
2019-05-25T08:32:47.110Z,1.00
2019-05-25T08:33:47.107Z,0.90
2019-05-25T08:34:47.088Z,1.10
2019-05-25T08:35:47.080Z,1.10
2019-05-25T08:36:47.068Z,1.00
2019-05-25T08:37:47.097Z,1.10
2019-05-25T08:38:47.052Z,0.90
2019-05-25T08:39:47.036Z,0.90
2019-05-25T08:40:47.029Z,0.90
2019-05-25T08:41:47.012Z,0.90
2019-05-25T08:42:47.061Z,1.00
2019-05-25T08:43:47.031Z,1.10
2019-05-25T08:44:46.985Z,1.00
2019-05-25T08:45:46.982Z,1.00
2019-05-25T08:46:46.960Z,1.10
2019-05-25T08:47:46.947Z,1.00
2019-05-25T08:48:46.941Z,0.90
2019-05-25T08:49:46.946Z,1.20
2019-05-25T08:50:46.918Z,0.90
2019-05-25T08:51:46.900Z,1.10
2019-05-25T08:52:46.894Z,1.00
2019-05-25T08:53:46.908Z,1.10
2019-05-25T08:54:46.872Z,0.90
2019-05-25T08:55:46.855Z,1.20
2019-05-25T08:56:46.852Z,1.10
2019-05-25T08:57:46.838Z,1.10
2019-05-25T08:58:48.651Z,1.30
2019-05-25T09:01:46.806Z,1.10
2019-05-25T09:02:46.787Z,1.10
2019-05-25T09:03:46.807Z,1.10
2019-05-25T09:04:46.764Z,1.20
2019-05-25T09:05:46.748Z,1.00
2019-05-25T09:06:46.742Z,0.90
2019-05-25T09:07:46.724Z,1.10
2019-05-25T09:08:46.710Z,1.20
2019-05-25T09:09:46.743Z,1.10
2019-05-25T09:10:46.694Z,1.00
2019-05-25T09:11:46.717Z,1.10
2019-05-25T09:12:46.686Z,1.10
2019-05-25T09:13:46.655Z,1.10
2019-05-25T09:14:46.643Z,1.20
2019-05-25T09:15:46.646Z,1.20
2019-05-25T09:16:46.624Z,1.20
2019-05-25T09:17:46.619Z,1.10
2019-05-25T09:18:46.602Z,1.00
2019-05-25T09:19:46.604Z,1.00
2019-05-25T09:20:46.616Z,1.00
2019-05-25T09:22:01.484Z,1.10
2019-05-25T09:22:47.564Z,1.30
2019-05-25T09:23:48.701Z,1.20
2019-05-25T09:24:46.535Z,1.10
2019-05-25T09:25:46.525Z,1.10
2019-05-25T09:26:46.524Z,1.00
2019-05-25T09:27:46.503Z,1.20
2019-05-25T09:28:46.491Z,1.10
2019-05-25T09:29:46.479Z,1.10
2019-05-25T09:31:56.690Z,1.20
2019-05-25T09:32:46.467Z,1.00
2019-05-25T09:33:46.433Z,1.10
2019-05-25T09:34:46.433Z,1.10
2019-05-25T09:35:46.418Z,1.30
2019-05-25T09:36:46.411Z,1.20
2019-05-25T09:37:46.394Z,1.20
2019-05-25T09:38:46.383Z,1.30
2019-05-25T09:39:46.366Z,1.10
2019-05-25T09:40:46.360Z,1.10
2019-05-25T09:41:46.361Z,1.10
2019-05-25T09:42:46.336Z,1.20
2019-05-25T09:43:46.331Z,1.30
2019-05-25T09:44:46.318Z,1.20
2019-05-25T09:45:46.305Z,1.20
2019-05-25T09:46:46.296Z,1.10
2019-05-25T09:47:46.277Z,1.10
2019-05-25T09:48:46.269Z,1.30
2019-05-25T09:49:47.166Z,1.30
2019-05-25T09:50:46.255Z,1.50
2019-05-25T09:51:48.617Z,1.40
2019-05-25T09:52:46.223Z,1.30
2019-05-25T09:53:46.211Z,1.40
2019-05-25T09:54:46.206Z,1.30
2019-05-25T09:55:46.186Z,1.30
2019-05-25T09:56:46.186Z,1.30
2019-05-25T09:57:46.198Z,1.20
2019-05-25T09:58:46.154Z,1.60
2019-05-25T09:59:46.151Z,1.40
2019-05-25T10:00:46.135Z,1.50
2019-05-25T10:01:46.123Z,1.30
2019-05-25T10:02:58.242Z,1.30
2019-05-25T10:03:46.100Z,1.50
2019-05-25T10:04:46.094Z,1.40
2019-05-25T10:05:46.084Z,1.40
2019-05-25T10:06:46.073Z,1.50
2019-05-25T10:07:46.066Z,1.40
2019-05-25T10:08:46.053Z,1.40
2019-05-25T10:09:46.033Z,1.40
2019-05-25T10:10:46.023Z,1.40
2019-05-25T10:11:46.009Z,1.40
2019-05-25T10:12:46.005Z,1.60
2019-05-25T10:13:46.029Z,1.70
2019-05-25T10:14:45.980Z,1.50
2019-05-25T10:15:45.963Z,1.60
2019-05-25T10:16:45.955Z,1.60
2019-05-25T10:17:45.948Z,1.70
2019-05-25T10:18:45.937Z,1.60
2019-05-25T10:19:45.958Z,1.60
2019-05-25T10:20:45.907Z,1.60
2019-05-25T10:21:45.903Z,1.70
2019-05-25T10:22:45.885Z,1.60
2019-05-25T10:23:45.876Z,1.70
2019-05-25T10:24:45.866Z,1.70
2019-05-25T10:25:45.866Z,1.60
2019-05-25T10:26:45.842Z,1.90
2019-05-25T10:27:45.832Z,2.10
2019-05-25T10:28:45.820Z,1.90
2019-05-25T10:29:45.810Z,1.80
2019-05-25T10:30:45.820Z,1.70
2019-05-25T10:31:45.783Z,1.70
2019-05-25T10:32:45.778Z,1.90
2019-05-25T10:33:57.346Z,2.00
2019-05-25T10:34:45.755Z,1.80
2019-05-25T10:35:45.745Z,1.90
2019-05-25T10:36:45.745Z,2.00
2019-05-25T10:37:45.728Z,1.90
2019-05-25T10:38:45.707Z,1.90
2019-05-25T10:39:45.704Z,2.00
2019-05-25T10:40:45.686Z,1.80
2019-05-25T10:41:45.690Z,2.00
2019-05-25T10:42:45.664Z,1.90
2019-05-25T10:43:45.649Z,1.90
2019-05-25T10:44:45.643Z,2.00
2019-05-25T10:45:45.630Z,2.00
2019-05-25T10:46:45.655Z,2.00
2019-05-25T10:47:45.610Z,2.00
2019-05-25T10:48:45.601Z,2.10
2019-05-25T10:49:45.592Z,2.00
2019-05-25T10:50:45.577Z,2.00
2019-05-25T10:51:45.563Z,2.00
2019-05-25T10:52:45.590Z,1.90
2019-05-25T10:53:45.540Z,2.00
2019-05-25T10:54:45.531Z,2.00
2019-05-25T10:55:45.515Z,2.20
2019-05-25T10:56:45.517Z,1.90
2019-05-25T10:57:45.495Z,2.30
2019-05-25T10:58:45.491Z,2.20
2019-05-25T10:59:53.130Z,2.10
2019-05-25T11:00:46.465Z,2.00
2019-05-25T11:01:45.479Z,1.90
2019-05-25T11:02:45.483Z,2.10
2019-05-25T11:03:45.427Z,2.20
2019-05-25T11:04:56.491Z,2.10
2019-05-25T11:05:45.407Z,2.20
2019-05-25T11:06:45.433Z,2.20
2019-05-25T11:07:45.393Z,2.20
2019-05-25T11:08:45.418Z,2.20
2019-05-25T11:09:45.368Z,2.20
2019-05-25T11:10:45.362Z,2.40
2019-05-25T11:11:45.348Z,2.20
2019-05-25T11:12:45.338Z,2.20
2019-05-25T11:13:45.323Z,2.20
2019-05-25T11:14:45.318Z,2.30
2019-05-25T11:15:45.299Z,2.30
2019-05-25T11:16:45.301Z,2.40
2019-05-25T11:17:45.278Z,2.10
2019-05-25T11:18:45.305Z,2.30
2019-05-25T11:19:45.262Z,2.30
2019-05-25T11:20:45.246Z,2.40
2019-05-25T11:21:45.232Z,2.30
2019-05-25T11:22:45.306Z,2.30
2019-05-25T11:23:45.213Z,2.30
2019-05-25T11:24:45.206Z,2.30
2019-05-25T11:25:45.199Z,2.60
2019-05-25T11:26:45.181Z,2.50
2019-05-25T11:27:45.169Z,2.20
2019-05-25T11:28:45.153Z,2.40
2019-05-25T11:29:45.168Z,2.30
2019-05-25T11:30:45.133Z,2.30
2019-05-25T11:31:54.514Z,2.50
2019-05-25T11:32:46.106Z,2.40
2019-05-25T11:33:45.098Z,2.50
2019-05-25T11:34:45.146Z,2.50
2019-05-25T11:35:55.864Z,2.60
2019-05-25T11:36:45.094Z,2.60
2019-05-25T11:37:45.060Z,2.60
2019-05-25T11:38:45.081Z,2.50
2019-05-25T11:39:45.029Z,2.50
2019-05-25T11:40:45.023Z,2.60
2019-05-25T11:41:45.021Z,2.70
2019-05-25T11:42:45.009Z,2.50
2019-05-25T11:43:44.988Z,2.70
2019-05-25T11:44:44.977Z,3.10
2019-05-25T11:45:45.550Z,2.60
2019-05-25T11:46:44.957Z,3.00
2019-05-25T11:47:44.961Z,3.10
2019-05-25T11:48:44.931Z,2.80
2019-05-25T11:49:44.920Z,2.60
2019-05-25T11:50:44.907Z,3.00
2019-05-25T11:51:44.901Z,2.80
2019-05-25T11:52:45.044Z,2.70
2019-05-25T11:53:44.873Z,2.80
2019-05-25T11:54:44.861Z,2.80
2019-05-25T11:55:44.853Z,2.70
2019-05-25T11:56:44.841Z,2.70
2019-05-25T11:57:44.828Z,2.70
2019-05-25T11:58:47.378Z,2.70
2019-05-25T11:59:44.813Z,2.50
2019-05-25T12:00:44.801Z,2.80
2019-05-25T12:01:44.786Z,2.50
2019-05-25T12:02:44.774Z,2.60
2019-05-25T12:03:44.761Z,2.70
2019-05-25T12:04:44.759Z,2.50
2019-05-25T12:05:44.739Z,2.60
2019-05-25T12:06:55.011Z,2.60
2019-05-25T12:07:45.162Z,2.50
2019-05-25T12:08:44.715Z,2.50
2019-05-25T12:09:44.711Z,2.50
2019-05-25T12:10:44.736Z,2.70
2019-05-25T12:11:44.676Z,2.60
2019-05-25T12:12:44.666Z,2.70
2019-05-25T12:13:44.652Z,2.60
2019-05-25T12:14:44.649Z,2.50
2019-05-25T12:15:44.637Z,2.60
2019-05-25T12:16:44.621Z,2.60
2019-05-25T12:17:44.639Z,2.60
2019-05-25T12:18:44.596Z,2.60
2019-05-25T12:19:44.634Z,2.50
2019-05-25T12:20:44.576Z,2.50
2019-05-25T12:21:44.560Z,2.40
2019-05-25T12:22:44.556Z,2.40
2019-05-25T12:23:44.543Z,2.50
2019-05-25T12:24:44.531Z,2.40
2019-05-25T12:25:44.556Z,2.20
2019-05-25T12:26:44.510Z,2.20
2019-05-25T12:27:44.497Z,2.10
2019-05-25T12:28:44.494Z,2.20
2019-05-25T12:29:44.478Z,2.20
2019-05-25T12:30:44.463Z,2.20
2019-05-25T12:31:44.458Z,2.40
2019-05-25T12:32:44.444Z,2.50
2019-05-25T12:33:44.434Z,2.30
2019-05-25T12:34:44.421Z,2.10
2019-05-25T12:35:45.269Z,2.20
2019-05-25T12:36:44.484Z,2.20
2019-05-25T12:37:55.696Z,1.90
2019-05-25T12:38:44.372Z,2.10
2019-05-25T12:39:44.369Z,2.20
2019-05-25T12:40:53.323Z,2.20
2019-05-25T12:41:45.380Z,2.00
2019-05-25T12:42:45.974Z,2.10
2019-05-25T12:43:44.316Z,2.00
2019-05-25T12:44:44.307Z,2.10
2019-05-25T12:45:44.301Z,2.20
2019-05-25T12:46:44.285Z,2.00
2019-05-25T12:47:44.491Z,2.10
2019-05-25T12:48:44.270Z,2.10
2019-05-25T12:49:50.448Z,2.00
2019-05-25T12:50:45.241Z,2.10
2019-05-25T12:51:44.232Z,2.00
2019-05-25T12:52:44.225Z,1.90
2019-05-25T12:53:44.249Z,1.80
2019-05-25T12:54:44.205Z,2.00
2019-05-25T12:55:44.188Z,2.00
2019-05-25T12:56:44.190Z,1.80
2019-05-25T12:57:44.166Z,1.80
2019-05-25T12:58:44.154Z,1.90
2019-05-25T12:59:44.153Z,1.80
2019-05-25T13:00:55.792Z,1.70
2019-05-25T13:01:45.119Z,1.90
2019-05-25T13:02:44.129Z,1.90
2019-05-25T13:03:44.100Z,1.70
2019-05-25T13:04:44.097Z,1.80
2019-05-25T13:05:44.075Z,1.70
2019-05-25T13:06:44.070Z,1.70
2019-05-25T13:07:44.062Z,1.70
2019-05-25T13:08:54.568Z,1.60
2019-05-25T13:09:44.045Z,1.70
2019-05-25T13:10:44.021Z,1.80
2019-05-25T13:11:44.008Z,1.40
2019-05-25T13:12:44.002Z,1.50
2019-05-25T13:13:43.989Z,1.60
2019-05-25T13:14:44.022Z,1.80
2019-05-25T13:15:43.968Z,1.60
2019-05-25T13:16:43.957Z,1.60
2019-05-25T13:17:43.940Z,1.40
2019-05-25T13:18:43.932Z,1.60
2019-05-25T13:19:43.924Z,1.50
2019-05-25T13:20:43.917Z,1.60
2019-05-25T13:21:43.904Z,1.50
2019-05-25T13:22:43.893Z,1.40
2019-05-25T13:23:43.882Z,1.50
2019-05-25T13:24:43.869Z,1.50
2019-05-25T13:25:43.865Z,1.40
2019-05-25T13:26:43.841Z,1.50
2019-05-25T13:27:43.830Z,1.50
2019-05-25T13:28:43.834Z,1.40
2019-05-25T13:29:43.832Z,1.40
2019-05-25T13:30:43.819Z,1.60
2019-05-25T13:31:43.790Z,1.40
2019-05-25T13:32:43.784Z,1.30
2019-05-25T13:33:43.767Z,1.40
2019-05-25T13:34:43.759Z,1.20